createdAt,value
2019-02-22T00:04:18.752Z,99.90
2019-02-22T00:09:26.016Z,99.90
2019-02-22T00:14:33.198Z,99.90
2019-02-22T00:19:41.486Z,99.90
2019-02-22T00:24:48.714Z,99.90
2019-02-22T00:29:55.824Z,99.90
2019-02-22T00:35:03.373Z,99.90
2019-02-22T00:40:10.466Z,99.90
2019-02-22T00:45:17.502Z,99.90
2019-02-22T00:50:24.619Z,99.90
2019-02-22T00:55:31.609Z,99.90
2019-02-22T01:00:38.740Z,99.90
2019-02-22T01:05:47.521Z,99.90
2019-02-22T01:10:54.624Z,99.90
2019-02-22T01:16:02.112Z,99.90
2019-02-22T01:21:09.601Z,99.90
2019-02-22T01:26:16.911Z,99.90
2019-02-22T01:31:25.229Z,99.90
2019-02-22T01:36:32.406Z,99.90
2019-02-22T01:41:39.687Z,99.90
2019-02-22T01:46:46.932Z,99.90
2019-02-22T01:51:54.124Z,99.90
2019-02-22T01:57:01.213Z,99.90
2019-02-22T02:02:08.424Z,99.90
2019-02-22T02:07:15.845Z,99.90
2019-02-22T02:12:23.326Z,99.90
2019-02-22T02:17:30.414Z,99.90
2019-02-22T02:22:39.739Z,99.90
2019-02-22T02:27:46.828Z,99.90
2019-02-22T02:32:54.269Z,99.90
2019-02-22T02:38:01.456Z,99.90
2019-02-22T02:43:08.797Z,99.90
2019-02-22T02:48:15.867Z,99.90
2019-02-22T02:53:22.929Z,99.90
2019-02-22T02:58:29.887Z,99.90
2019-02-22T03:03:36.936Z,99.90
2019-02-22T03:08:44.024Z,99.90
2019-02-22T03:13:51.143Z,99.90
2019-02-22T03:18:58.139Z,99.90
2019-02-22T03:24:05.966Z,99.90
2019-02-22T03:29:13.229Z,99.90
2019-02-22T03:34:20.412Z,99.90
2019-02-22T03:39:27.621Z,99.90
2019-02-22T03:44:34.901Z,99.90
2019-02-22T03:49:42.032Z,99.90
2019-02-22T03:54:49.391Z,99.90
2019-02-22T03:59:56.378Z,99.90
2019-02-22T04:05:03.500Z,99.90
2019-02-22T04:10:10.727Z,99.90
2019-02-22T04:15:19.345Z,99.90
2019-02-22T04:20:26.453Z,99.90
2019-02-22T04:25:33.672Z,99.90
2019-02-22T04:30:40.891Z,99.90
2019-02-22T04:35:48.387Z,99.90
2019-02-22T04:40:55.486Z,99.90
2019-02-22T04:46:02.579Z,99.90
2019-02-22T04:51:09.672Z,99.90
2019-02-22T04:56:16.874Z,99.90
2019-02-22T05:01:23.970Z,99.90
2019-02-22T05:06:31.192Z,99.90
2019-02-22T05:11:39.291Z,99.90
2019-02-22T05:16:46.564Z,99.90
2019-02-22T05:21:53.639Z,99.90
2019-02-22T05:27:00.731Z,99.90
2019-02-22T05:32:08.395Z,99.90
2019-02-22T05:37:15.472Z,99.90
2019-02-22T05:42:23.392Z,99.90
2019-02-22T05:47:30.591Z,99.90
2019-02-22T05:52:37.675Z,99.90
2019-02-22T05:57:44.785Z,99.90
2019-02-22T06:02:51.812Z,99.90
2019-02-22T06:07:59.030Z,99.90
2019-02-22T06:13:06.327Z,99.90
2019-02-22T06:18:14.274Z,99.90
2019-02-22T06:23:21.373Z,99.90
2019-02-22T06:28:28.467Z,99.90
2019-02-22T06:33:35.666Z,99.90
2019-02-22T06:38:46.702Z,99.90
2019-02-22T06:43:53.991Z,99.90
2019-02-22T06:49:01.219Z,99.90
2019-02-22T06:54:08.704Z,99.90
2019-02-22T06:59:15.774Z,99.90
2019-02-22T07:04:22.918Z,99.90
2019-02-22T07:09:29.938Z,99.90
2019-02-22T07:14:37.205Z,99.90
2019-02-22T07:19:44.328Z,99.90
2019-02-22T07:24:51.533Z,99.90
2019-02-22T07:29:58.642Z,99.90
2019-02-22T07:35:05.978Z,99.90
2019-02-22T07:40:13.217Z,99.90
2019-02-22T07:45:20.396Z,99.90
2019-02-22T07:50:27.489Z,99.90
2019-02-22T07:55:34.565Z,99.90
2019-02-22T08:00:41.563Z,99.90
2019-02-22T08:05:48.741Z,99.90
2019-02-22T08:10:55.844Z,97.70
2019-02-22T08:16:03.168Z,95.80
2019-02-22T08:21:11.339Z,96.10
2019-02-22T08:26:18.428Z,95.30
2019-02-22T08:31:25.606Z,95.60
2019-02-22T08:36:33.595Z,94.90
2019-02-22T08:41:41.159Z,94.00
2019-02-22T08:46:48.299Z,93.80
2019-02-22T08:51:55.499Z,92.80
2019-02-22T08:57:02.805Z,94.20
2019-02-22T09:02:11.105Z,93.00
2019-02-22T09:07:18.290Z,93.60
2019-02-22T09:12:25.365Z,92.50
2019-02-22T09:17:32.488Z,92.90
2019-02-22T09:22:39.589Z,93.20
2019-02-22T09:27:46.769Z,92.90
2019-02-22T09:32:53.921Z,93.10
2019-02-22T09:37:59.873Z,91.20
2019-02-22T09:43:08.039Z,90.60
2019-02-22T09:48:15.159Z,90.10
2019-02-22T09:53:22.216Z,90.40
2019-02-22T09:58:29.799Z,91.50
2019-02-22T10:03:36.871Z,91.20
2019-02-22T10:08:44.128Z,92.00
2019-02-22T10:13:51.821Z,89.90
2019-02-22T10:19:00.399Z,83.40
2019-02-22T10:24:07.459Z,84.30
2019-02-22T10:29:14.563Z,89.20
2019-02-22T10:34:21.681Z,86.70
2019-02-22T10:39:28.878Z,88.70
2019-02-22T10:44:35.945Z,83.90
2019-02-22T10:49:43.151Z,87.40
2019-02-22T10:54:50.239Z,80.80
2019-02-22T10:59:57.529Z,78.10
2019-02-22T11:05:04.848Z,82.30
2019-02-22T11:10:13.620Z,77.80
2019-02-22T11:15:20.820Z,80.20
2019-02-22T11:20:28.220Z,72.90
2019-02-22T11:25:36.216Z,69.40
2019-02-22T11:30:43.605Z,68.70
2019-02-22T11:35:50.856Z,69.60
2019-02-22T11:40:58.057Z,67.80
2019-02-22T11:46:05.883Z,72.60
2019-02-22T11:51:14.165Z,70.40
2019-02-22T11:56:22.551Z,65.60
2019-02-22T12:01:29.843Z,67.60
2019-02-22T12:06:36.956Z,64.10
2019-02-22T12:11:44.080Z,62.70
2019-02-22T12:16:51.189Z,59.40
2019-02-22T12:21:58.277Z,61.40
2019-02-22T12:27:05.827Z,58.90
2019-02-22T12:32:12.919Z,52.90
2019-02-22T12:37:20.351Z,44.10
2019-02-22T12:42:27.967Z,35.10
2019-02-22T12:47:35.946Z,30.70
2019-02-22T12:52:44.720Z,27.90
2019-02-22T12:57:51.811Z,26.20
2019-02-22T13:03:01.961Z,25.60
2019-02-22T13:08:07.600Z,24.40
2019-02-22T13:13:14.818Z,23.80
2019-02-22T13:18:21.797Z,23.10
2019-02-22T13:23:28.923Z,22.70
2019-02-22T13:28:36.116Z,23.10
2019-02-22T13:33:43.435Z,22.30
2019-02-22T13:38:50.553Z,22.40
2019-02-22T13:43:57.641Z,22.50
2019-02-22T13:49:05.736Z,21.80
2019-02-22T13:54:12.733Z,22.10
2019-02-22T13:59:19.800Z,21.80
2019-02-22T14:04:26.838Z,21.80
2019-02-22T14:09:33.937Z,21.80
2019-02-22T14:14:41.000Z,21.80
2019-02-22T14:19:48.406Z,21.40
2019-02-22T14:24:55.471Z,21.80
2019-02-22T14:30:02.551Z,21.60
2019-02-22T14:35:09.892Z,21.80
2019-02-22T14:40:17.508Z,21.90
2019-02-22T14:45:24.487Z,21.50
2019-02-22T14:50:31.595Z,21.70
2019-02-22T14:55:38.669Z,21.70
2019-02-22T15:00:46.461Z,21.80
2019-02-22T15:05:53.876Z,22.00
2019-02-22T15:11:01.017Z,21.80
2019-02-22T15:16:27.125Z,21.70
2019-02-22T15:21:34.639Z,22.40
2019-02-22T15:26:42.760Z,22.20
2019-02-22T15:31:49.839Z,23.00
2019-02-22T15:36:57.012Z,23.10
2019-02-22T15:42:04.069Z,23.30
2019-02-22T15:47:12.047Z,26.00
2019-02-22T15:52:19.592Z,29.30
2019-02-22T15:57:26.755Z,32.80
2019-02-22T16:02:35.888Z,36.00
2019-02-22T16:07:44.938Z,37.60
2019-02-22T16:12:51.579Z,40.10
2019-02-22T16:17:58.781Z,42.10
2019-02-22T16:23:05.898Z,43.20
2019-02-22T16:28:19.253Z,44.90
2019-02-22T16:33:26.501Z,46.20
2019-02-22T16:38:33.600Z,47.60
2019-02-22T16:43:40.693Z,48.10
2019-02-22T16:48:48.175Z,48.50
2019-02-22T16:53:55.338Z,49.70
2019-02-22T16:59:02.462Z,51.10
2019-02-22T17:04:09.563Z,52.00
2019-02-22T17:09:16.535Z,52.70
2019-02-22T17:14:23.649Z,53.60
2019-02-22T17:19:30.768Z,54.90
2019-02-22T17:24:38.081Z,57.00
2019-02-22T17:29:46.202Z,58.60
2019-02-22T17:34:53.258Z,61.10
2019-02-22T17:40:14.803Z,66.10
2019-02-22T17:45:23.153Z,75.30
2019-02-22T17:50:30.840Z,84.20
2019-02-22T17:55:38.508Z,90.30
2019-02-22T18:00:45.699Z,91.20
2019-02-22T18:05:53.320Z,91.60
2019-02-22T18:11:00.375Z,92.10
2019-02-22T18:16:08.056Z,93.20
2019-02-22T18:21:15.196Z,93.70
2019-02-22T18:26:22.319Z,94.00
2019-02-22T18:31:29.570Z,94.40
2019-02-22T18:36:36.811Z,95.00
2019-02-22T18:41:43.924Z,95.30
2019-02-22T18:46:51.290Z,95.70
2019-02-22T18:51:58.435Z,95.90
2019-02-22T18:57:06.955Z,96.40
2019-02-22T19:02:14.168Z,96.50
2019-02-22T19:07:21.344Z,96.80
2019-02-22T19:12:28.573Z,96.90
2019-02-22T19:17:35.730Z,97.10
2019-02-22T19:22:42.809Z,97.60
2019-02-22T19:27:49.977Z,97.80
2019-02-22T19:32:57.272Z,98.00
2019-02-22T19:38:04.402Z,98.30
2019-02-22T19:43:12.110Z,98.50
2019-02-22T19:48:19.445Z,98.70
2019-02-22T19:53:26.566Z,99.20
2019-02-22T19:58:33.760Z,99.40
2019-02-22T20:03:40.927Z,99.50
2019-02-22T20:08:48.266Z,99.80
2019-02-22T20:13:55.591Z,99.90
2019-02-22T20:19:02.785Z,99.90
2019-02-22T20:24:09.992Z,99.90
2019-02-22T20:29:17.098Z,99.90
2019-02-22T20:34:24.208Z,99.90
2019-02-22T20:39:31.215Z,99.90
2019-02-22T20:44:38.552Z,99.90
2019-02-22T20:49:45.765Z,99.90
2019-02-22T20:54:52.859Z,99.90
2019-02-22T21:00:00.413Z,99.90
2019-02-22T21:05:08.916Z,99.90
2019-02-22T21:10:17.017Z,99.90
2019-02-22T21:15:26.533Z,99.90
2019-02-22T21:20:33.667Z,99.90
2019-02-22T21:25:40.777Z,99.90
2019-02-22T21:30:52.436Z,99.90
2019-02-22T21:35:59.737Z,99.90
2019-02-22T21:41:06.893Z,99.90
2019-02-22T21:46:14.254Z,99.90
2019-02-22T21:51:21.464Z,99.90
2019-02-22T21:56:29.766Z,99.90
2019-02-22T22:01:37.186Z,99.90
2019-02-22T22:06:44.402Z,99.90
2019-02-22T22:11:52.664Z,99.90
2019-02-22T22:17:00.149Z,99.90
2019-02-22T22:22:07.344Z,99.90
2019-02-22T22:27:14.491Z,99.90
2019-02-22T22:32:23.513Z,99.90
2019-02-22T22:37:31.037Z,99.90
2019-02-22T22:42:38.350Z,99.90
2019-02-22T22:47:46.061Z,99.90
2019-02-22T22:52:53.255Z,99.90
2019-02-22T22:58:00.616Z,99.90
2019-02-22T23:03:07.835Z,99.90
2019-02-22T23:08:15.074Z,99.90
2019-02-22T23:13:22.376Z,99.90
2019-02-22T23:18:29.572Z,99.90
2019-02-22T23:23:36.834Z,99.90
2019-02-22T23:28:43.972Z,99.90
2019-02-22T23:33:52.987Z,99.90
2019-02-22T23:39:00.077Z,99.90
2019-02-22T23:44:07.143Z,99.90
2019-02-22T23:49:14.240Z,99.90
2019-02-22T23:54:21.313Z,99.90
2019-02-22T23:59:28.387Z,99.90
